^^
Datos históricos de la estación: Murcia-Puente Tocinos
Diario Informe para Enero 21, 2019 Unidades:  Ingés    Métrico   Ambas
Diario Semanal Mensual Anual
  Máxima: Mínima: Promedio:
Temperatura: 82.9 °F 71.4 °F 77.2 °F
Punto de rocio: 72.5 °F 56.1 °F 67.8 °F
Humedad: 96% 40.4% 75%
Velocidad viento: 13mph 0mph 6.4mph
Racha viento: 24.2mph - -
Viento- - Este
Presión: 30.1 in 30 in -
Precipitación: 0.54 in    
 
 
Tabla de datos para Enero 21, 2019
Hora Temperatura Punto de rocio Presión Viento Velocidad viento Racha viento Humedad Intensidad lluvia(por hora) Nubes
00:04 78.6 °F 69.4 °F 30 in NO 2.4 mph 5 mph 73.5% 0 in
00:09 78.8 °F 69.3 °F 30 in NO 2.5 mph 5 mph 73% 0 in
00:14 78.8 °F 69.4 °F 30 in NO 2.9 mph 5.9 mph 73% 0 in
00:19 78.8 °F 69.4 °F 30 in NO 2.9 mph 6 mph 72.9% 0 in
00:24 78.8 °F 69.3 °F 30 in NO 2.9 mph 5.9 mph 72.5% 0 in
00:29 78.8 °F 69.1 °F 30 in ONO 2.9 mph 6 mph 72.4% 0 in
00:34 78.6 °F 69.3 °F 30 in ONO 2.9 mph 6 mph 73% 0 in
00:39 78.6 °F 69.3 °F 30 in NO 2.8 mph 5.9 mph 73% 0 in
00:44 78.6 °F 69.1 °F 30 in NO 2.4 mph 6.9 mph 72.8% 0 in
00:49 78.4 °F 68.7 °F 30 in NO 2.7 mph 7 mph 72% 0 in
00:54 78.4 °F 68.7 °F 30 in ONO 3.6 mph 5 mph 72% 0 in
00:59 78.4 °F 68.7 °F 30 in ONO 3.4 mph 6.4 mph 72% 0 in
01:04 78.4 °F 68.7 °F 30 in NO 2.9 mph 8.1 mph 72% 0 in
01:09 78.4 °F 68.7 °F 30 in NO 3.2 mph 8 mph 72% 0 in
01:14 78.4 °F 68.7 °F 30 in NO 4.3 mph 9.2 mph 72% 0 in
01:19 78.4 °F 68.7 °F 30 in NO 4.5 mph 9 mph 72% 0 in
01:24 78.4 °F 68.7 °F 30 in NO 5.2 mph 8.1 mph 72% 0 in
01:29 78.4 °F 68.7 °F 30 in NO 5 mph 8.5 mph 72% 0 in
01:34 78.4 °F 68.7 °F 30 in NO 4.3 mph 9 mph 72% 0 in
01:39 78.4 °F 68.5 °F 30 in NO 4.5 mph 9 mph 72% 0 in
01:44 78.3 °F 68.5 °F 30 in NO 5.2 mph 9 mph 72% 0 in
01:49 78.3 °F 68.5 °F 30 in NO 5 mph 8 mph 72% 0 in
01:54 78.3 °F 68.5 °F 30 in NNO 4.3 mph 7 mph 72% 0 in
01:59 78.3 °F 68.5 °F 30 in NNO 4 mph 7 mph 72% 0 in
02:04 78.4 °F 68.5 °F 30 in NNE 3.1 mph 6.9 mph 72% 0 in
02:09 78.3 °F 68.9 °F 30 in NE 3.3 mph 7 mph 73% 0.01 in
02:14 77.9 °F 69.4 °F 30 in NE 4 mph 8.5 mph 75.2% 0.03 in
02:19 77.4 °F 70.3 °F 30 in NE 4.3 mph 10.4 mph 79.2% 0.03 in
02:24 76.6 °F 70.9 °F 30 in NE 5.2 mph 10 mph 82.4% 0.04 in
02:29 76.3 °F 71.2 °F 30 in NNE 5.3 mph 10.7 mph 84.5% 0.04 in
02:34 75.9 °F 71.4 °F 30 in NNE 5.9 mph 11 mph 86.2% 0.04 in
02:39 75.7 °F 71.6 °F 30 in NE 5.5 mph 8 mph 87% 0.04 in
02:44 75.6 °F 71.6 °F 30 in NE 4.3 mph 6 mph 87.7% 0.04 in
02:49 75.6 °F 71.8 °F 30 in NE 4 mph 6.2 mph 88% 0.04 in
02:54 75.4 °F 71.6 °F 30 in NE 3.1 mph 6.2 mph 88.2% 0.04 in
02:59 75.4 °F 72 °F 30 in NE 3 mph 6 mph 89% 0.04 in
03:04 75.4 °F 72 °F 30 in ENE 2.9 mph 5.2 mph 89% 0.06 in
03:09 75.4 °F 71.8 °F 30 in Este 2.7 mph 5 mph 89% 0.06 in
03:14 75.2 °F 71.8 °F 30 in Este 2 mph 4 mph 89% 0.05 in
03:19 75.2 °F 71.8 °F 30 in Este 1.6 mph 3.1 mph 89% 0.03 in
03:24 75.2 °F 72 °F 30 in Calm   3.5 mph 89.7% 0.02 in
03:29 75.4 °F 72.1 °F 30 in NNO 0.4 mph 4.6 mph 90% 0.02 in
03:34 75.4 °F 72.1 °F 30 in NNO 1.8 mph 5 mph 90% 0.02 in
03:39 75.4 °F 72.1 °F 30 in NNO 1.9 mph 4 mph 90% 0.02 in
03:44 75.2 °F 72.1 °F 30 in NO 2 mph 4 mph 90% 0.02 in
03:49 75.2 °F 72 °F 30 in NO 1.9 mph 3.6 mph 90% 0.02 in
03:54 75 °F 72 °F 30 in NNO 1.4 mph 4 mph 90% 0.02 in
03:59 75 °F 71.8 °F 30 in NNO 1.5 mph 3.6 mph 90% 0.02 in
04:04 74.8 °F 71.8 °F 30 in NNO 1.8 mph 4 mph 90% 0.02 in
04:09 74.8 °F 71.8 °F 30 in NNO 1.4 mph 2 mph 90% 0 in
04:14 75 °F 72 °F 30 in Calm   4.6 mph 90% 0 in
04:19 75 °F 72 °F 30 in Calm   5 mph 90% 0 in
04:24 75 °F 72 °F 30 in Calm   4.7 mph 90% 0 in
04:29 75 °F 72 °F 30 in ENE 0.4 mph 5 mph 90% 0.01 in
04:34 75 °F 72 °F 30 in NE 2 mph 5 mph 90.1% 0.01 in
04:39 75 °F 72 °F 30 in NE 2 mph 5 mph 90.6% 0.02 in
04:44 74.8 °F 72 °F 30 in NE 2 mph 5 mph 91% 0.03 in
04:49 74.8 °F 72 °F 30 in NE 1.6 mph 2.4 mph 91% 0.03 in
04:54 74.8 °F 72 °F 30 in Calm   3.5 mph 91% 0.03 in
04:59 74.8 °F 72.1 °F 30 in North 0.4 mph 3.6 mph 91.6% 0.03 in
05:04 74.8 °F 72.3 °F 30 in NNE 1.4 mph 7.6 mph 91.8% 0.03 in
05:09 74.7 °F 72.1 °F 30 in NNE 2.1 mph 11.5 mph 91.8% 0.03 in
05:14 74.3 °F 71.6 °F 30 in NNE 4.7 mph 15.2 mph 91.5% 0.03 in
05:19 73.8 °F 71.2 °F 30 in NE 5.3 mph 15 mph 91.9% 0.04 in
05:24 73.6 °F 71.2 °F 30 in NNE 7.4 mph 15 mph 92.6% 0.05 in
05:29 73.6 °F 71.4 °F 30 in NNE 7.1 mph 10.2 mph 93% 0.05 in
05:34 73.2 °F 71.2 °F 30 in NNE 6.2 mph 11.8 mph 93.1% 0.06 in
05:39 73 °F 71.2 °F 30 in NNE 6.3 mph 12.7 mph 93.7% 0.06 in
05:44 73 °F 71.1 °F 30 in NNE 6.9 mph 13 mph 94% 0.06 in
05:49 72.9 °F 71.1 °F 30 in NNE 6.8 mph 11 mph 94% 0.06 in
05:54 72.9 °F 71.1 °F 30 in NNE 6.2 mph 10 mph 94% 0.07 in
05:59 72.9 °F 71.1 °F 30 in NNE 5.7 mph 7.4 mph 94% 0.08 in
06:04 72.9 °F 71.2 °F 30 in NNE 4.3 mph 7 mph 94.9% 0.08 in
06:09 72.9 °F 71.2 °F 30 in NNE 4.2 mph 7.4 mph 95% 0.09 in
06:14 72.9 °F 71.2 °F 30 in NNE 4 mph 8.5 mph 95% 0.09 in
06:19 72.9 °F 71.2 °F 30 in NNE 4.2 mph 9 mph 95% 0.1 in
06:24 72.9 °F 71.2 °F 30 in NNE 4.7 mph 8 mph 95% 0.09 in
06:29 72.9 °F 71.2 °F 30 in NNE 4.5 mph 7 mph 95% 0.1 in
06:34 72.9 °F 71.4 °F 30 in NNE 4 mph 7 mph 95% 0.13 in
06:39 73 °F 71.4 °F 30 in NNE 4.1 mph 8.1 mph 95% 0.14 in
06:44 72.9 °F 71.2 °F 30 in NNE 4.3 mph 9.7 mph 95% 0.14 in
06:49 72.9 °F 71.2 °F 30 in NNE 4.4 mph 10 mph 95% 0.14 in
06:54 72.7 °F 71.2 °F 30 in NE 4.7 mph 20.8 mph 95% 0.14 in
06:59 72.7 °F 71.2 °F 30 in NE 6 mph 21 mph 95% 0.13 in
07:04 72.5 °F 71.1 °F 30 in NE 9.2 mph 17.3 mph 95% 0.12 in
07:09 72.1 °F 70.7 °F 30 in NE 9.5 mph 19.6 mph 95% 0.12 in
07:14 72 °F 70.3 °F 30 in NE 10.7 mph 20 mph 95% 0.11 in
07:19 72 °F 70.3 °F 30 in NE 10.4 mph 15 mph 95% 0.1 in
07:24 72 °F 70.3 °F 30 in NE 9.2 mph 15.6 mph 95% 0.11 in
07:29 71.8 °F 70.3 °F 30 in NE 9.2 mph 16.1 mph 95% 0.1 in
07:34 71.8 °F 70.3 °F 30 in NE 9.2 mph 15 mph 95% 0.07 in
07:39 71.8 °F 70.3 °F 30 in NE 8.5 mph 11 mph 95% 0.06 in
07:44 71.6 °F 70 °F 30 in NE 6.2 mph 10 mph 95% 0.07 in
07:49 71.4 °F 70 °F 30 in NE 6.2 mph 9.7 mph 95% 0.07 in
07:54 71.4 °F 70 °F 30 in NE 5.9 mph 10 mph 95% 0.07 in
07:59 71.4 °F 70 °F 30 in NNE 5.5 mph 9 mph 95% 0.08 in
08:04 71.6 °F 70.2 °F 30 in NE 4.3 mph 7 mph 95% 0.08 in
08:09 71.8 °F 70.3 °F 30 in NE 4.2 mph 7 mph 95% 0.09 in
08:14 72 °F 70.7 °F 30 in NNE 4 mph 7 mph 95.8% 0.09 in
08:19 72.1 °F 70.9 °F 30 in NNE 3.9 mph 7.4 mph 96% 0.1 in
08:24 72.1 °F 70.9 °F 30 in NE 3.6 mph 8.1 mph 96% 0.1 in
08:29 72.3 °F 71.1 °F 30 in NE 3.7 mph 8 mph 96% 0.09 in
08:34 72.5 °F 71.2 °F 30.1 in NE 4.3 mph 7 mph 96% 0.09 in
08:39 72.7 °F 71.4 °F 30.1 in NE 4.3 mph 9.7 mph 96% 0.08 in
08:44 72.9 °F 71.6 °F 30.1 in NE 4.3 mph 10 mph 96% 0.07 in
08:49 72.9 °F 71.6 °F 30.1 in NE 4.5 mph 11.8 mph 96% 0.07 in
08:54 72.7 °F 71.4 °F 30.1 in NE 5.4 mph 12.7 mph 96% 0.06 in
08:59 72.9 °F 71.6 °F 30.1 in NE 6.2 mph 14 mph 96% 0.06 in
09:04 72.7 °F 71.4 °F 30.1 in NE 8.1 mph 18.5 mph 95.3% 0.05 in
09:09 72.5 °F 71.1 °F 30 in NE 8.7 mph 21.3 mph 95% 0.07 in
09:14 72.3 °F 70.9 °F 30 in NE 10.7 mph 21 mph 95% 0.07 in
09:19 72.3 °F 70.9 °F 30 in NE 10.4 mph 15 mph 95% 0.07 in
09:24 72.3 °F 70.9 °F 30 in NE 9.2 mph 15 mph 95% 0.06 in
09:29 72.5 °F 70.9 °F 30 in NE 8.8 mph 13 mph 95% 0.1 in
09:34 72.5 °F 71.1 °F 30.1 in NE 7.4 mph 12 mph 95% 0.11 in
09:39 72.5 °F 71.1 °F 30.1 in NE 7 mph 10 mph 95% 0.12 in
09:44 72.7 °F 71.1 °F 30.1 in NE 5.9 mph 10 mph 95% 0.1 in
09:49 72.7 °F 71.2 °F 30.1 in ENE 5.5 mph 9.2 mph 95% 0.1 in
09:54 72.7 °F 71.2 °F 30.1 in NE 4.3 mph 9 mph 95% 0.11 in
09:59 72.9 °F 71.2 °F 30.1 in ESE 4.2 mph 7 mph 95% 0.12 in
10:04 72.9 °F 71.4 °F 30.1 in ENE 4 mph 7 mph 95.1% 0.12 in
10:09 73 °F 71.8 °F 30.1 in ENE 3.6 mph 6 mph 95.8% 0.11 in
10:14 73 °F 71.6 °F 30.1 in NE 2.4 mph 5 mph 95.4% 0.09 in
10:19 73.2 °F 71.8 °F 30.1 in NNE 2.4 mph 5.8 mph 95.1% 0.09 in
10:24 73.2 °F 71.8 °F 30.1 in NE 2.4 mph 6 mph 95.3% 0.09 in
10:29 73.4 °F 72 °F 30.1 in NE 2.5 mph 6.2 mph 95.2% 0.08 in
10:34 73.6 °F 72.1 °F 30.1 in NNE 2.9 mph 6 mph 95% 0.05 in
10:39 73.8 °F 72.1 °F 30 in NNE 3 mph 6.9 mph 95% 0.04 in
10:44 74.1 °F 72.5 °F 30 in NE 3.6 mph 11.8 mph 95% 0.03 in
10:49 74.3 °F 72.5 °F 30.1 in NE 4.3 mph 13.8 mph 94.2% 0.03 in
10:54 74.7 °F 72.5 °F 30.1 in NE 6.9 mph 14 mph 92.7% 0.02 in
10:59 75 °F 72.1 °F 30.1 in NNE 7.3 mph 17.3 mph 90.5% 0.01 in
11:04 75.4 °F 71.8 °F 30.1 in NNE 8.5 mph 17 mph 88.4% 0 in
11:09 75.6 °F 71.6 °F 30.1 in NE 8.3 mph 15.9 mph 87.3% 0 in
11:14 75.7 °F 71.1 °F 30.1 in NNE 7.6 mph 16.1 mph 85.5% 0 in
11:19 75.9 °F 70.7 °F 30.1 in NE 8.3 mph 19.7 mph 84% 0 in
11:24 76.3 °F 70.5 °F 30.1 in NE 10.7 mph 20 mph 82.2% 0 in
11:29 76.5 °F 70.5 °F 30.1 in NE 10.9 mph 19 mph 82.1% 0 in
11:34 76.3 °F 70.5 °F 30.1 in NNE 11.8 mph 19.7 mph 82.7% 0 in
11:39 75.9 °F 70.5 °F 30.1 in NE 11.9 mph 20 mph 83.2% 0 in
11:44 75.7 °F 70.7 °F 30.1 in NNE 12.3 mph 20 mph 84.1% 0 in
11:49 75.9 °F 71.1 °F 30.1 in NE 11.7 mph 17 mph 85% 0 in
11:54 76.3 °F 71.2 °F 30.1 in NE 10 mph 17.5 mph 84.4% 0 in
11:59 76.8 °F 71.2 °F 30.1 in NE 10 mph 17 mph 83.2% 0 in
12:04 77.2 °F 71.1 °F 30.1 in NE 10 mph 17.3 mph 81.6% 0 in
12:09 77.5 °F 71.1 °F 30.1 in NE 10.1 mph 20.7 mph 80.4% 0 in
12:14 77.9 °F 70.9 °F 30.1 in NE 10.2 mph 21 mph 78.9% 0 in
12:19 78.4 °F 70.5 °F 30.1 in NE 10.6 mph 21.9 mph 76.7% 0 in
12:24 78.6 °F 70 °F 30.1 in NE 11.8 mph 22 mph 74.9% 0 in
12:29 78.6 °F 69.6 °F 30.1 in NE 11.9 mph 20 mph 74.1% 0 in
12:34 78.8 °F 69.8 °F 30.1 in NE 12.3 mph 19 mph 73.7% 0 in
12:39 79.3 °F 69.6 °F 30.1 in NE 12.3 mph 19 mph 72.3% 0 in
12:44 79.3 °F 69.1 °F 30.1 in NE 12.3 mph 19.7 mph 71% 0 in
12:49 79.3 °F 69.1 °F 30.1 in NE 11.9 mph 20 mph 70.9% 0 in
12:54 79.5 °F 68.7 °F 30.1 in NE 10.7 mph 18.5 mph 69.7% 0 in
12:59 79.7 °F 68.7 °F 30.1 in NE 10.6 mph 19 mph 69.2% 0 in
13:04 80.2 °F 68.9 °F 30.1 in ENE 10.2 mph 18.4 mph 68.3% 0 in
13:09 80.4 °F 68.7 °F 30 in NE 10.3 mph 18.4 mph 67.7% 0 in
13:14 80.6 °F 68.4 °F 30 in NE 10.7 mph 19.2 mph 66.5% 0 in
13:19 80.2 °F 67.6 °F 30 in NE 11.1 mph 22.3 mph 65.6% 0 in
13:24 80.2 °F 68 °F 30 in NE 12.3 mph 22 mph 66.6% 0 in
13:29 80.2 °F 67.6 °F 30 in NE 12.3 mph 21 mph 65.2% 0 in
13:34 80.2 °F 67.3 °F 30 in ENE 12.3 mph 21 mph 64.9% 0 in
13:39 80.1 °F 67.5 °F 30 in NE 12.1 mph 18 mph 65.4% 0 in
13:44 80.1 °F 67.1 °F 30 in NE 11.2 mph 21.3 mph 64.9% 0 in
13:49 80.1 °F 67.3 °F 30 in NE 11.5 mph 21 mph 65.2% 0 in
13:54 79.9 °F 67.3 °F 30 in NE 12.5 mph 22.3 mph 65.4% 0 in
13:59 79.9 °F 67.1 °F 30 in NE 12.3 mph 22 mph 65% 0 in
14:04 80.1 °F 67.6 °F 30 in NE 11.8 mph 22 mph 65.9% 0 in
14:09 80.1 °F 67.3 °F 30 in NE 10.9 mph 17.5 mph 65.2% 0 in
14:14 79.9 °F 66.7 °F 30 in NE 8.1 mph 17.3 mph 64.3% 0 in
14:19 80.1 °F 66.7 °F 30 in NE 8.7 mph 18.5 mph 64.2% 0 in
14:24 80.1 °F 66 °F 30 in NE 10.7 mph 19 mph 62.3% 0 in
14:29 80.2 °F 66.4 °F 30 in NE 10.9 mph 19.6 mph 63% 0 in
14:34 80.4 °F 66.6 °F 30 in NE 11.4 mph 20 mph 62.7% 0 in
14:39 80.2 °F 66.6 °F 30 in NE 11.1 mph 18.4 mph 63% 0 in
14:44 80.2 °F 66.7 °F 30 in NE 10.2 mph 18.5 mph 63.6% 0 in
14:49 80.2 °F 66.4 °F 30 in NE 10 mph 19 mph 62.7% 0 in
14:54 80.4 °F 66.6 °F 30 in ENE 9.2 mph 16 mph 62.8% 0 in
14:59 80.8 °F 67.1 °F 30 in NE 8.8 mph 15 mph 63.3% 0 in
15:04 81 °F 66.4 °F 30 in NE 7.4 mph 16.3 mph 61.6% 0 in
15:09 80.8 °F 65.7 °F 30 in ENE 8 mph 16.1 mph 60.1% 0 in
15:14 80.8 °F 64.9 °F 30 in NE 9.7 mph 16.1 mph 58.8% 0 in
15:19 81 °F 64.6 °F 30 in NE 9.9 mph 19.6 mph 57.7% 0 in
15:24 81.1 °F 64.8 °F 30 in NE 10.7 mph 20.7 mph 57.6% 0 in
15:29 81.3 °F 64.6 °F 30 in NE 10.8 mph 21 mph 56.8% 0 in
15:34 81.3 °F 65.3 °F 30 in NE 11.2 mph 20.8 mph 58.1% 0 in
15:39 81.7 °F 64.9 °F 30 in NE 11.2 mph 21 mph 57.1% 0 in
15:44 81.7 °F 64 °F 30 in NE 11.2 mph 21 mph 55.1% 0 in
15:49 81.9 °F 64.9 °F 30 in NE 11.1 mph 20 mph 56.6% 0 in
15:54 81.7 °F 65.3 °F 30 in NE 10.7 mph 20.7 mph 57.8% 0 in
15:59 81.7 °F 64.2 °F 30 in NE 11.3 mph 22.3 mph 55.6% 0 in
16:04 81.9 °F 64.8 °F 30 in NE 13 mph 22 mph 56.4% 0 in
16:09 82 °F 65.3 °F 30 in NE 12.3 mph 20.1 mph 57% 0 in
16:14 82 °F 65.1 °F 30 in ENE 10 mph 21 mph 56.8% 0 in
16:19 81.9 °F 65.3 °F 30 in NE 10.1 mph 21 mph 57.5% 0 in
16:24 81.9 °F 64.8 °F 30 in NE 10.2 mph 18.1 mph 56.2% 0 in
16:29 82 °F 63.1 °F 30 in NE 10.3 mph 24.2 mph 52.8% 0 in
16:34 82.2 °F 62.4 °F 30 in NE 10.7 mph 24.2 mph 51.2% 0 in
16:39 82.6 °F 63.5 °F 30 in NE 10.7 mph 19 mph 52.8% 0 in
16:44 82.2 °F 63.9 °F 30 in ENE 10.7 mph 19 mph 53.9% 0 in
16:49 82.4 °F 63.9 °F 30 in ENE 10.4 mph 19 mph 53.6% 0 in
16:54 82.2 °F 63.3 °F 30 in ENE 9.7 mph 20.8 mph 53% 0 in
16:59 82 °F 62.6 °F 30 in ENE 9.9 mph 23 mph 51.8% 0 in
17:04 82 °F 60.4 °F 30 in NE 10.7 mph 23 mph 48.1% 0 in
17:09 82 °F 59.5 °F 30 in ENE 10.9 mph 23 mph 46.3% 0 in
17:14 82.6 °F 57 °F 30 in ENE 11.8 mph 21.3 mph 41.9% 0 in
17:19 82.6 °F 56.1 °F 30 in ENE 11.1 mph 21 mph 40.4% 0 in
17:24 82.9 °F 56.8 °F 30 in NE 8.7 mph 18.1 mph 41% 0 in
17:29 82.8 °F 57.9 °F 30 in NE 8.7 mph 18.4 mph 42.9% 0 in
17:34 82.8 °F 58.1 °F 30 in ENE 8.7 mph 18.4 mph 43.3% 0 in
17:39 82.6 °F 58.3 °F 30 in NE 8.7 mph 18 mph 43.6% 0 in
17:44 82.2 °F 58.3 °F 30 in NE 8.7 mph 17.3 mph 44.2% 0 in
17:49 82.6 °F 58.6 °F 30 in NE 9.3 mph 18.5 mph 44.2% 0 in
17:54 82.4 °F 59.2 °F 30 in ENE 11.2 mph 19 mph 45.4% 0 in
17:59 82.2 °F 60.1 °F 30 in ENE 11.1 mph 19 mph 47% 0 in
18:04 82 °F 59.5 °F 30 in NE 10.7 mph 19 mph 46.3% 0 in
18:09 82 °F 59.5 °F 30 in NE 10.4 mph 19 mph 46.5% 0 in
18:14 82 °F 59.5 °F 30 in NE 9.7 mph 17.5 mph 46.8% 0 in
18:19 81.9 °F 60.1 °F 30 in NE 9.6 mph 17 mph 47.8% 0 in
18:24 81.7 °F 60.4 °F 30 in NE 9.2 mph 18.4 mph 48.6% 0 in
18:29 81.3 °F 60.6 °F 30 in ENE 9.4 mph 18.4 mph 49.6% 0 in
18:34 81.3 °F 60.6 °F 30 in NE 10 mph 18 mph 49.5% 0 in
18:39 81.1 °F 60.8 °F 30 in NE 10 mph 16 mph 50% 0 in
18:44 81.3 °F 61.3 °F 30 in NE 10 mph 16.1 mph 50.7% 0 in
18:49 81.1 °F 61.7 °F 30 in ENE 10 mph 21.3 mph 51.5% 0 in
18:54 81 °F 60.8 °F 30 in NE 10 mph 21 mph 50.4% 0 in
18:59 81 °F 61.7 °F 30 in ENE 9.8 mph 19 mph 51.9% 0 in
19:04 81 °F 62.4 °F 30 in NE 9.2 mph 19 mph 53.4% 0 in
19:09 80.8 °F 63 °F 30 in ENE 9.3 mph 18 mph 54.9% 0 in
19:14 80.4 °F 63.3 °F 30 in NE 9.7 mph 16 mph 56.1% 0 in
19:19 80.2 °F 63.5 °F 30 in NE 9.2 mph 14 mph 56.9% 0 in
19:24 80.1 °F 63.5 °F 30 in NE 7.6 mph 14 mph 57% 0 in
19:29 79.9 °F 63.3 °F 30 in ENE 7.5 mph 14 mph 57% 0 in
19:34 79.5 °F 63.1 °F 30 in NE 6.9 mph 13 mph 57.3% 0 in
19:39 79.3 °F 63.5 °F 30 in NE 6.9 mph 13 mph 58.3% 0 in
19:44 79.3 °F 63.7 °F 30 in NE 6.9 mph 12 mph 59% 0 in
19:49 79.2 °F 63.7 °F 30 in NE 6.9 mph 13 mph 59% 0 in
19:54 79.2 °F 63.5 °F 30 in NE 6.9 mph 13 mph 59% 0 in
19:59 79 °F 63.3 °F 30 in NE 6.8 mph 11 mph 59% 0 in
20:04 78.8 °F 63.5 °F 30 in NE 6.4 mph 10.4 mph 59.5% 0 in
20:09 78.6 °F 63.7 °F 30 in NE 6.3 mph 10 mph 60% 0 in
20:14 78.6 °F 63.5 °F 30 in NE 5.9 mph 11.5 mph 60% 0 in
20:19 78.4 °F 63.7 °F 30 in NE 5.9 mph 12 mph 60.6% 0 in
20:24 78.4 °F 63.9 °F 30 in NE 5.9 mph 11.5 mph 61% 0 in
20:29 78.3 °F 64.2 °F 30 in ENE 5.8 mph 12 mph 61.9% 0 in
20:34 78.3 °F 64.2 °F 30 in NE 5.4 mph 10 mph 62.1% 0 in
20:39 78.1 °F 64.6 °F 30 in NE 5.2 mph 9 mph 63% 0 in
20:44 77.9 °F 64.6 °F 30 in NE 4.3 mph 9.7 mph 63.7% 0 in
20:49 77.7 °F 64.8 °F 30 in ENE 4.5 mph 10.2 mph 64.6% 0 in
20:54 77.5 °F 64.8 °F 30 in NNE 5.4 mph 10.4 mph 65% 0 in
20:59 77.5 °F 64.8 °F 30 in NE 4.8 mph 8 mph 65% 0 in
21:04 77.4 °F 64.8 °F 30 in NE 3.1 mph 8.5 mph 65.1% 0 in
21:09 77.4 °F 64.9 °F 30 in ENE 3.6 mph 10.4 mph 65.8% 0 in
21:14 77.4 °F 65.1 °F 30 in NE 5.4 mph 10 mph 66% 0 in
21:19 77.4 °F 65.1 °F 30 in NE 5.1 mph 7 mph 66% 0 in
21:24 77.2 °F 64.9 °F 30 in NE 4 mph 7.4 mph 66% 0 in
21:29 77.2 °F 65.1 °F 30 in NE 4 mph 7.4 mph 66.5% 0 in
21:34 77.2 °F 65.5 °F 30 in NE 4 mph 7 mph 67% 0 in
21:39 77 °F 65.3 °F 30 in NE 4 mph 7 mph 67% 0 in
21:44 77 °F 65.1 °F 30 in ENE 4 mph 6 mph 67% 0 in
21:49 77 °F 65.5 °F 30 in NE 3.7 mph 5 mph 68% 0 in
21:54 76.8 °F 65.5 °F 30 in NNE 2.9 mph 5 mph 68% 0 in
21:59 76.8 °F 65.5 °F 30 in North 2.7 mph 5 mph 68% 0 in
22:04 76.8 °F 65.5 °F 30 in NNE 2.4 mph 5.9 mph 68.1% 0 in
22:09 76.6 °F 65.7 °F 30 in North 2.5 mph 6 mph 69% 0 in
22:14 76.6 °F 65.7 °F 30 in NE 2.9 mph 5 mph 69% 0 in
22:19 76.6 °F 65.7 °F 30 in NE 2.9 mph 5.4 mph 69% 0 in
22:24 76.5 °F 65.7 °F 30 in NE 2.9 mph 6 mph 69.3% 0 in
22:29 76.5 °F 65.8 °F 30 in NE 2.9 mph 6 mph 70% 0 in
22:34 76.5 °F 65.8 °F 30 in NE 3.1 mph 5 mph 70% 0 in
22:39 76.5 °F 65.8 °F 30 in NE 2.9 mph 5 mph 70% 0 in
22:44 76.3 °F 66 °F 30 in NE 2.4 mph 5 mph 70.4% 0 in
22:49 76.3 °F 66.2 °F 30.1 in NE 2.5 mph 5.9 mph 71% 0 in
22:54 76.3 °F 66.2 °F 30.1 in NNE 3.1 mph 6 mph 71% 0 in
22:59 76.3 °F 66.4 °F 30.1 in NNE 2.9 mph 5 mph 71.6% 0 in
23:04 75.9 °F 66.4 °F 30.1 in North 2.4 mph 5 mph 72% 0 in
23:09 75.9 °F 66.2 °F 30.1 in North 2.2 mph 5 mph 72% 0 in
23:14 75.7 °F 66.2 °F 30.1 in NNE 1.4 mph 5.2 mph 72.1% 0 in
23:19 75.7 °F 66.6 °F 30.1 in NNO 1.5 mph 5 mph 73% 0 in
23:24 75.7 °F 66.4 °F 30.1 in NO 1.8 mph   72.5% 0 in
23:29 75.7 °F 66 °F 30.1 in NO 1.4 mph   72% 0 in
23:34 75.7 °F 66 °F 30.1 in Calm     72% 0 in
23:39 75.9 °F 66.2 °F 30.1 in Calm     72% 0 in
23:44 75.9 °F 66.2 °F 30.1 in Calm     72% 0 in
23:49 75.9 °F 66.2 °F 30.1 in ONO 0.3 mph 4.6 mph 71.9% 0 in
23:54 75.9 °F 66 °F 30.1 in ONO 1.4 mph 5 mph 71.4% 0 in
23:59 75.9 °F 66 °F 30.1 in OSO 1.5 mph 4.6 mph 71.3% 0 in
Murcia-Puente Tocinos, Espa?a
Compliments of Weather Underground - 3.25 mb

La estación de MeteoMurcia.com, publica sus datos en los siguientes proyectos:

Weather Underground PWS IMURCIAP2 Meteoclimatic www.awekas.at

W3Counter
Web Analytics